Aviation Digital Data Service (ADDS)

Output produced by METARs form (1845 UTC 18 June 2019)
found at http://www.aviationweather.gov/metar/data/
 
Forecast for: TXKF (BERMUDA NAS , BM)
Text: TAF TXKF 181731Z 1818/1918 24009KT 9999 FEW014 SCT300
Forecast period: 1800 UTC 18 June 2019 to 1800 UTC 19 June 2019
Forecast type: FROM: standard forecast or significant change
Winds: from the WSW (240 degrees) at 10 MPH (9 knots; 4.6 m/s)
Visibility: 6 or more miles 10+ km)
Ceiling: at least 12,000 feet AGL
Clouds: few clouds at 1400 feet AGL
scattered clouds at 30000 feet AGL
Weather: no significant weather forecast for this period
Text: PROB40
Forecast period: 1800 UTC 18 June 2019 to 1300 UTC 19 June 2019
Forecast type: TEMPORARY: The following changes expected for less than half the time period
Visibility: 1.99 miles (3.20 km)
Ceiling: 1400 feet AGL
Clouds: broken clouds at 1400 feet AGL
Weather: SHRA  (rain showers)